CheckWX is a tool to help pilots better visualize weather data.  It is not intended as a substitute for an official pre-flight weather briefing.

03:20:21 UTC

KPBF METAR
Pine Bluff Regional Grider Field Airport
Pine Bluff, Arkansas, USA
Current

27 mins ago

KPBF 060253Z AUTO 16007KT 10SM FEW100 14/04 A3001 RMK AO2 SLP161 T01390039 50002
Observed
Dec-6 @ 02:53 UTC
Wind
  • 160° at 7 KTS
Visibility
10 SM
Flight Rules
VFR
Cloud Levels
  • Few at 10,000' AGL
Temperature
14°C / 57°F
Dewpoint
C / 39°F
Humidity
51%
Altimeter
30.01" Hg
Pressure
1016.22 hPa
Previous

1 hour ago

KPBF 060153Z AUTO 16006KT 10SM CLR 13/04 A3001 RMK AO2 SLP163 T01330039
Observed
Dec-6 @ 01:53 UTC
Wind
  • 160° at 6 KTS
Visibility
10 SM
Flight Rules
VFR
Cloud Levels
  • Clear skies
Temperature
13°C / 55°F
Dewpoint
C / 39°F
Humidity
55%
Altimeter
30.01" Hg
Pressure
1016.22 hPa
Previous

2 hours ago

KPBF 060053Z AUTO 16008KT 10SM OVC110 15/03 A3001 RMK AO2 SLP160 T01500033
Observed
Dec-6 @ 00:53 UTC
Wind
  • 160° at 8 KTS
Visibility
10 SM
Flight Rules
VFR
Cloud Levels
  • Overcast at 11,000' AGL
Temperature
15°C / 59°F
Dewpoint
C / 37°F
Humidity
45%
Altimeter
30.01" Hg
Pressure
1016.22 hPa